Time;durP1;ratioP1;P1;durP2;ratioP2;P2;SDS_P1;SDS_P2;PMS_P1;PMS_P2;Temp;Humidity;BMP_temperature;BMP_pressure;BME280_temperature;BME280_humidity;BME280_pressure;Samples;Min_cycle;Max_cycle;Signal;HPM_P1;HPM_P2
2024/04/02 00:01:26;;;;;;;0.93;0.68;;;;;;;;;;5090965;28;20019;-85
2024/04/02 00:03:52;;;;;;;1.58;0.80;;;;;;;;;;5091834;28;20028;-84
2024/04/02 00:06:18;;;;;;;3.10;1.05;;;;;;;;;;5085230;28;20020;-84
2024/04/02 00:08:44;;;;;;;2.35;0.90;;;;;;;;;;5072686;28;20060;-85
2024/04/02 00:11:10;;;;;;;1.23;1.13;;;;;;;;;;5090702;28;20446;-84
2024/04/02 00:13:36;;;;;;;2.05;1.13;;;;;;;;;;5091193;28;20028;-84
2024/04/02 00:16:02;;;;;;;5.35;1.30;;;;;;;;;;5090687;28;20032;-85
2024/04/02 00:18:29;;;;;;;0.70;0.70;;;6.30;94.40;;;;;;5090721;28;20389;-84
2024/04/02 00:21:00;;;;;;;3.00;0.50;;;6.20;94.60;;;;;;5071276;28;20502;-85
2024/04/02 00:23:26;;;;;;;0.40;0.40;;;;;;;;;;5072703;28;20110;-85
2024/04/02 00:26:02;;;;;;;0.80;0.60;;;6.10;95.20;;;;;;5071157;28;20460;-84
2024/04/02 00:28:28;;;;;;;0.57;0.57;;;;;;;;;;5083643;28;20024;-83
2024/04/02 00:30:59;;;;;;;1.98;0.70;;;5.90;95.40;;;;;;5090313;28;20532;-84
2024/04/02 00:33:25;;;;;;;3.53;0.68;;;;;;;;;;5090645;28;20078;-85
2024/04/02 00:36:00;;;;;;;0.60;0.60;;;5.90;96.00;;;;;;5071756;28;20449;-84
2024/04/02 00:38:26;;;;;;;1.60;0.80;;;;;;;;;;5090116;28;20478;-84
2024/04/02 00:40:52;;;;;;;0.68;0.60;;;;;;;;;;5089931;28;20031;-84
2024/04/02 00:43:18;;;;;;;0.40;0.40;;;;;;;;;;5072058;28;20452;-85
2024/04/02 00:45:44;;;;;;;0.68;0.60;;;;;;;;;;5090352;28;20028;-84
2024/04/02 00:48:11;;;;;;;0.70;0.70;;;6.10;95.20;;;;;;5089450;28;20024;-84
2024/04/02 00:50:37;;;;;;;4.33;0.87;;;;;;;;;;5071509;28;20456;-84
2024/04/02 00:53:03;;;;;;;1.20;0.60;;;;;;;;;;5089862;28;20028;-85
2024/04/02 00:55:30;;;;;;;0.98;0.60;;;;;;;;;;5082626;28;20383;-84
2024/04/02 00:57:56;;;;;;;1.88;0.55;;;;;;;;;;5096453;28;20421;-84
2024/04/02 01:00:22;;;;;;;0.68;0.68;;;;;;;;;;5075518;28;20039;-84
2024/04/02 01:02:49;;;;;;;1.50;1.05;;;6.10;95.10;;;;;;5102317;28;20031;-84
2024/04/02 01:05:15;;;;;;;1.13;0.60;;;;;;;;;;5073623;28;20020;-84
2024/04/02 01:07:42;;;;;;;0.75;0.70;;;5.90;96.00;;;;;;5099910;28;20030;-84
2024/04/02 01:10:08;;;;;;;2.10;0.98;;;;;;;;;;5089558;28;20031;-84
2024/04/02 01:12:35;;;;;;;2.10;1.33;;;;;;;;;;5071474;28;20443;-84
2024/04/02 01:15:01;;;;;;;1.65;1.35;;;;;;;;;;5070975;28;20107;-84
2024/04/02 01:17:27;;;;;;;1.60;1.50;;;;;;;;;;5077113;28;20062;-83
2024/04/02 01:19:53;;;;;;;0.77;0.65;;;;;;;;;;5089403;28;20109;-85
2024/04/02 01:22:19;;;;;;;0.82;0.70;;;;;;;;;;5089379;28;20035;-84
2024/04/02 01:24:50;;;;;;;2.25;0.70;;;6.00;96.20;;;;;;5081212;28;20025;-84
2024/04/02 01:27:16;;;;;;;0.70;0.70;;;;;;;;;;5089682;28;20042;-84
2024/04/02 01:29:42;;;;;;;1.98;1.00;;;;;;;;;;5071030;28;20028;-84
2024/04/02 01:32:08;;;;;;;2.50;1.00;;;;;;;;;;5101120;28;20024;-84
2024/04/02 01:34:34;;;;;;;1.88;1.13;;;;;;;;;;5089343;28;20073;-84
2024/04/02 01:37:00;;;;;;;1.33;0.73;;;;;;;;;;5088998;28;20050;-84
2024/04/02 01:39:26;;;;;;;3.38;1.35;;;;;;;;;;5088899;28;20020;-84
2024/04/02 01:41:52;;;;;;;1.42;1.13;;;;;;;;;;5089170;28;20534;-83
2024/04/02 01:44:18;;;;;;;1.35;1.00;;;;;;;;;;5089004;28;20020;-84
2024/04/02 01:46:44;;;;;;;1.73;0.93;;;;;;;;;;5088532;28;20111;-84
2024/04/02 01:49:10;;;;;;;0.55;0.55;;;;;;;;;;5089277;28;20032;-84
2024/04/02 01:51:36;;;;;;;1.10;1.02;;;;;;;;;;5088141;28;20036;-85
2024/04/02 01:54:03;;;;;;;0.50;0.50;;;;;;;;;;5089142;28;20047;-84
2024/04/02 01:56:29;;;;;;;7.97;1.07;;;;;;;;;;5090276;28;20034;-84
2024/04/02 01:58:55;;;;;;;2.60;1.27;;;;;;;;;;5063870;28;20082;-84
2024/04/02 02:01:21;;;;;;;0.95;0.90;;;;;;;;;;5088512;28;20059;-84
2024/04/02 02:03:47;;;;;;;5.57;1.10;;;;;;;;;;5070761;28;20119;-84
2024/04/02 02:06:13;;;;;;;1.92;1.20;;;;;;;;;;5069866;28;20112;-84
2024/04/02 02:08:39;;;;;;;1.52;1.13;;;;;;;;;;5087642;28;20020;-84
2024/04/02 02:11:05;;;;;;;1.77;0.90;;;;;;;;;;5088697;28;20379;-85
2024/04/02 02:13:38;;;;;;;4.47;1.77;;;7.10;94.50;;;;;;5088429;28;20024;-84
2024/04/02 02:16:04;;;;;;;2.35;1.50;;;;;;;;;;5088335;28;20028;-85
2024/04/02 02:18:30;;;;;;;0.60;0.60;;;;;;;;;;5089149;28;20023;-84
2024/04/02 02:20:57;;;;;;;0.82;0.63;;;;;;;;;;5094147;28;20525;-84
2024/04/02 02:23:23;;;;;;;0.95;0.80;;;;;;;;;;5070410;28;20036;-85
2024/04/02 02:25:50;;;;;;;2.17;1.95;;;;;;;;;;5087798;28;20020;-83
2024/04/02 02:28:16;;;;;;;4.00;2.17;;;;;;;;;;5088368;28;20032;-84
2024/04/02 02:30:42;;;;;;;2.15;0.93;;;;;;;;;;5084256;28;20036;-84
2024/04/02 02:33:08;;;;;;;0.98;0.88;;;;;;;;;;5070099;28;20024;-84
2024/04/02 02:35:34;;;;;;;4.15;1.00;;;;;;;;;;5069900;28;20024;-84
2024/04/02 02:38:00;;;;;;;0.85;0.85;;;;;;;;;;5064166;28;20052;-84
2024/04/02 02:40:26;;;;;;;0.55;0.55;;;;;;;;;;5083182;28;20064;-84
2024/04/02 02:42:52;;;;;;;0.82;0.63;;;;;;;;;;5088098;28;20056;-84
2024/04/02 02:45:18;;;;;;;1.15;0.60;;;;;;;;;;5088230;28;20545;-84
2024/04/02 02:47:44;;;;;;;2.95;0.80;;;;;;;;;;5070019;28;20024;-85
2024/04/02 02:50:10;;;;;;;1.95;0.73;;;;;;;;;;5069929;28;20421;-84
2024/04/02 02:52:36;;;;;;;1.05;0.68;;;;;;;;;;5088053;28;20032;-85
2024/04/02 02:55:03;;;;;;;0.60;0.60;;;;;;;;;;5088006;28;20436;-83
2024/04/02 02:57:29;;;;;;;0.50;0.50;;;;;;;;;;5088628;28;20517;-84
2024/04/02 02:59:55;;;;;;;8.25;0.98;;;;;;;;;;5087193;28;20052;-83
2024/04/02 03:02:21;;;;;;;0.57;0.50;;;;;;;;;;5088409;28;20069;-84
2024/04/02 03:04:50;;;;;;;0.50;0.50;;;8.50;83.80;;;;;;5088407;28;20028;-85
2024/04/02 03:07:16;;;;;;;5.15;0.68;;;;;;;;;;5100347;28;20028;-84
2024/04/02 03:09:42;;;;;;;0.60;0.60;;;;;;;;;;5087913;28;20107;-85
2024/04/02 03:12:08;;;;;;;0.57;0.57;;;8.50;81.90;;;;;;5088145;28;20028;-85
2024/04/02 03:14:34;;;;;;;0.40;0.40;;;;;;;;;;5087670;28;20032;-85
2024/04/02 03:17:00;;;;;;;6.85;0.75;;;;;;;;;;5088298;28;20026;-85
2024/04/02 03:19:28;;;;;;;0.80;0.80;;;8.50;83.10;;;;;;5086437;28;20512;-84
2024/04/02 03:21:54;;;;;;;7.95;1.35;;;;;;;;;;5080775;28;20041;-85
2024/04/02 03:24:20;;;;;;;1.33;0.80;;;;;;;;;;5073481;28;20024;-84
2024/04/02 03:26:49;;;;;;;0.60;0.60;;;;;;;;;;5073573;28;20024;-84
2024/04/02 03:29:15;;;;;;;0.65;0.63;;;;;;;;;;5073017;28;20465;-85
2024/04/02 03:31:41;;;;;;;1.08;0.70;;;;;;;;;;5091188;28;20056;-84
2024/04/02 03:34:07;;;;;;;6.30;0.90;;;;;;;;;;5091684;28;20032;-84
2024/04/02 03:36:33;;;;;;;0.65;0.65;;;;;;;;;;5073465;28;20156;-84
2024/04/02 03:38:59;;;;;;;1.38;1.02;;;;;;;;;;5091496;28;21067;-84
2024/04/02 03:41:25;;;;;;;6.07;1.35;;;;;;;;;;5090573;28;20020;-84
2024/04/02 03:43:51;;;;;;;3.22;1.40;;;;;;;;;;5087488;28;20418;-84
2024/04/02 03:46:17;;;;;;;5.78;2.10;;;;;;;;;;5091429;28;20020;-84
2024/04/02 03:48:43;;;;;;;7.18;2.60;;;;;;;;;;5101211;28;20410;-84
2024/04/02 03:51:09;;;;;;;12.18;2.58;;;;;;;;;;5091187;28;20555;-84
2024/04/02 03:53:35;;;;;;;6.75;2.22;;;;;;;;;;5087717;28;20022;-84
2024/04/02 03:56:03;;;;;;;7.53;1.30;;;7.80;88.20;;;;;;5073008;28;20214;-85
2024/04/02 03:58:29;;;;;;;;;;;7.80;88.70;;;;;;5091167;28;20214;-85
2024/04/02 04:00:55;;;;;;;4.22;1.33;;;;;;;;;;5090684;28;20048;-85
2024/04/02 04:03:25;;;;;;;4.97;1.40;;;7.80;89.70;;;;;;5090938;28;20012;-84
2024/04/02 04:05:58;;;;;;;4.82;0.80;;;7.90;89.50;;;;;;5100416;28;20489;-84
2024/04/02 04:08:26;;;;;;;2.58;0.70;;;7.90;89.30;;;;;;5093441;28;20504;-85
2024/04/02 04:10:52;;;;;;;1.40;0.90;;;;;;;;;;5090639;28;20071;-85
2024/04/02 04:13:18;;;;;;;0.88;0.85;;;;;;;;;;5090386;28;20456;-85
2024/04/02 04:15:55;;;;;;;3.60;1.50;;;8.10;87.90;;;;;;5090459;28;20060;-85
2024/04/02 04:18:21;;;;;;;2.13;1.23;;;8.20;87.80;;;;;;5072497;28;20070;-84
2024/04/02 04:21:06;;;;;;;3.40;1.15;;;;;;;;;;5072171;28;20433;-84
2024/04/02 04:23:32;;;;;;;1.27;1.08;;;;;;;;;;5090710;28;20047;-84
2024/04/02 04:25:59;;;;;;;2.97;0.80;;;8.20;86.80;;;;;;5087430;28;20028;-86
2024/04/02 04:28:26;;;;;;;1.05;0.60;;;8.10;86.50;;;;;;5071688;28;20494;-84
2024/04/02 04:30:53;;;;;;;0.63;0.63;;;;;;;;;;5072158;28;20040;-85
2024/04/02 04:33:19;;;;;;;1.33;0.77;;;;;;;;;;5072330;28;20123;-84
2024/04/02 04:35:45;;;;;;;0.60;0.60;;;;;;;;;;5090451;28;20103;-84
2024/04/02 04:38:11;;;;;;;0.70;0.70;;;;;;;;;;5071985;28;20030;-85
2024/04/02 04:40:37;;;;;;;5.13;0.68;;;;;;;;;;5071509;28;20016;-84
2024/04/02 04:43:03;;;;;;;0.93;0.80;;;;;;;;;;5072347;28;20055;-85
2024/04/02 04:45:29;;;;;;;1.95;1.50;;;;;;;;;;5071084;28;20425;-85
2024/04/02 04:47:57;;;;;;;2.45;1.58;;;7.40;88.40;;;;;;5090549;28;20039;-86
2024/04/02 04:50:23;;;;;;;0.88;0.88;;;;;;;;;;5089422;28;20517;-85
2024/04/02 04:52:49;;;;;;;2.88;1.27;;;;;;;;;;5072022;28;20028;-85
2024/04/02 04:55:15;;;;;;;0.80;0.80;;;;;;;;;;5070987;28;20023;-85
2024/04/02 04:57:41;;;;;;;2.15;1.35;;;;;;;;;;5090187;28;20544;-85
2024/04/02 05:00:07;;;;;;;1.77;1.20;;;;;;;;;;5089102;28;20048;-85
2024/04/02 05:02:33;;;;;;;1.35;0.65;;;;;;;;;;5071865;28;20024;-85
2024/04/02 05:04:59;;;;;;;0.95;0.68;;;;;;;;;;5081457;28;20028;-84
2024/04/02 05:07:25;;;;;;;1.45;1.20;;;;;;;;;;5099606;28;20289;-85
2024/04/02 05:09:52;;;;;;;1.35;1.00;;;;;;;;;;5089510;28;20073;-85
2024/04/02 05:12:18;;;;;;;0.77;0.77;;;;;;;;;;5080940;28;20064;-85
2024/04/02 05:14:44;;;;;;;1.13;1.02;;;;;;;;;;5085708;28;20486;-87
2024/04/02 05:17:10;;;;;;;1.00;0.90;;;;;;;;;;5089695;28;20409;-85
2024/04/02 05:19:36;;;;;;;1.60;0.90;;;;;;;;;;5088436;28;20032;-85
2024/04/02 05:22:06;;;;;;;1.48;0.82;;;;;;;;;;5091051;28;20481;-84
2024/04/02 05:24:32;;;;;;;6.47;0.88;;;;;;;;;;5061547;28;20129;-85
2024/04/02 05:26:58;;;;;;;4.30;0.90;;;;;;;;;;5086717;28;20123;-85
2024/04/02 05:29:24;;;;;;;1.13;1.02;;;;;;;;;;5088173;28;20489;-84
2024/04/02 05:31:50;;;;;;;1.20;0.90;;;;;;;;;;5085432;28;20036;-85
2024/04/02 05:34:16;;;;;;;1.20;0.80;;;;;;;;;;5066330;28;20399;-84
2024/04/02 05:36:42;;;;;;;1.42;1.23;;;;;;;;;;5087377;28;20449;-84
2024/04/02 05:39:08;;;;;;;0.70;0.70;;;;;;;;;;5084051;28;20130;-85
2024/04/02 05:41:34;;;;;;;3.83;0.60;;;;;;;;;;5087422;28;20020;-84
2024/04/02 05:44:00;;;;;;;0.88;0.80;;;;;;;;;;5086943;28;20143;-85
2024/04/02 05:46:26;;;;;;;1.17;1.08;;;;;;;;;;5087339;28;20036;-85
2024/04/02 05:48:52;;;;;;;2.22;0.90;;;;;;;;;;5088129;28;20024;-85
2024/04/02 05:51:18;;;;;;;1.45;1.05;;;;;;;;;;5087325;28;20055;-88
2024/04/02 05:53:44;;;;;;;2.88;2.15;;;;;;;;;;5092473;28;20104;-85
2024/04/02 05:56:10;;;;;;;1.00;0.90;;;;;;;;;;5087792;28;20036;-90
2024/04/02 05:58:36;;;;;;;2.95;0.90;;;9.00;96.70;;;;;;5088964;28;20039;-91
2024/04/02 06:01:03;;;;;;;2.90;0.90;;;9.10;82.20;;;;;;5088710;28;20032;-85
2024/04/02 06:03:29;;;;;;;1.35;1.25;;;;;;;;;;5086523;28;20520;-86
2024/04/02 06:05:55;;;;;;;6.32;0.90;;;;;;;;;;5066269;28;20036;-85
2024/04/02 06:08:21;;;;;;;2.70;1.15;;;;;;;;;;5078495;28;20024;-81
2024/04/02 06:10:47;;;;;;;5.55;1.50;;;;;;;;;;5086847;28;20036;-79
2024/04/02 06:13:13;;;;;;;17.75;3.03;;;;;;;;;;5087553;28;20028;-79
2024/04/02 06:15:39;;;;;;;1.00;1.00;;;;;;;;;;5087392;28;20036;-79
2024/04/02 06:18:05;;;;;;;2.13;1.58;;;;;;;;;;5086663;28;20526;-79
2024/04/02 06:20:31;;;;;;;2.55;1.58;;;;;;;;;;5086975;28;20028;-79
2024/04/02 06:22:57;;;;;;;2.67;2.33;;;;;;;;;;5086661;28;20028;-80
2024/04/02 06:25:23;;;;;;;6.53;2.67;;;;;;;;;;5086524;28;20051;-80
2024/04/02 06:27:49;;;;;;;2.88;2.30;;;;;;;;;;5085680;28;20020;-79
2024/04/02 06:30:15;;;;;;;3.13;2.65;;;;;;;;;;5086362;28;20123;-79
2024/04/02 06:32:41;;;;;;;1.50;1.40;;;;;;;;;;5086554;28;20501;-79
2024/04/02 06:35:07;;;;;;;1.52;1.42;;;;;;;;;;5087384;28;20086;-79
2024/04/02 06:37:33;;;;;;;2.30;2.10;;;;;;;;;;5086089;28;20034;-79
2024/04/02 06:40:00;;;;;;;2.35;1.30;;;23.60;59.30;;;;;;5068330;28;20024;-85
2024/04/02 06:42:26;;;;;;;2.17;2.08;;;26.30;56.50;;;;;;5087183;28;20020;-84
2024/04/02 06:44:51;;;;;;;2.75;1.75;;;;;;;;;;5086641;28;20034;-86
2024/04/02 06:47:18;;;;;;;1.27;0.65;;;;;;;;;;5071727;28;20477;-85
2024/04/02 06:49:44;;;;;;;1.60;1.48;;;;;;;;;;5068227;28;20066;-84
2024/04/02 06:52:09;;;;;;;2.70;1.35;;;;;;;;;;5086152;28;20470;-82
2024/04/02 06:54:36;;;;;;;2.22;1.10;;;;;;;;;;5086349;28;20028;-85
2024/04/02 06:57:02;;;;;;;2.70;1.40;;;;;;;;;;5072124;28;20460;-85
2024/04/02 06:59:29;;;;;;;9.07;8.32;;;;;;;;;;5090659;28;20285;-83
2024/04/02 07:01:55;;;;;;;7.55;1.27;;;;;;;;;;5090646;28;20069;-82
2024/04/02 07:04:21;;;;;;;2.35;1.10;;;;;;;;;;5084515;28;20412;-81
2024/04/02 07:06:47;;;;;;;1.27;0.80;;;;;;;;;;5102119;28;20509;-80
2024/04/02 07:09:13;;;;;;;1.40;0.77;;;;;;;;;;5090534;28;20268;-79
2024/04/02 07:11:39;;;;;;;1.60;1.20;;;;;;;;;;5090945;28;20398;-79
2024/04/02 07:14:05;;;;;;;1.70;0.98;;;;;;;;;;5097399;28;20027;-80
2024/04/02 07:16:31;;;;;;;5.70;0.73;;;;;;;;;;5090201;28;20059;-81
2024/04/02 07:18:57;;;;;;;5.60;1.33;;;;;;;;;;5070232;28;20031;-78
2024/04/02 07:21:23;;;;;;;1.02;0.63;;;;;;;;;;5062749;28;20045;-82
2024/04/02 07:23:49;;;;;;;3.25;0.80;;;;;;;;;;5062814;28;20020;-83
2024/04/02 07:26:15;;;;;;;1.30;0.60;;;;;;;;;;5066415;28;20028;-89
2024/04/02 07:28:41;;;;;;;0.63;0.60;;;;;;;;;;5070725;28;20025;-79
2024/04/02 07:31:07;;;;;;;1.15;0.60;;;;;;;;;;5069687;28;20447;-78
2024/04/02 07:33:33;;;;;;;1.05;0.35;;;;;;;;;;5069643;28;20020;-79
2024/04/02 07:36:01;;;;;;;1.10;0.40;;;;;;;;;;5069029;28;20838;-79
2024/04/02 07:38:27;;;;;;;2.78;0.47;;;;;;;;;;5065357;28;20487;-78
2024/04/02 07:40:53;;;;;;;0.30;0.30;;;;;;;;;;5069681;28;20086;-79
2024/04/02 07:43:19;;;;;;;1.35;0.60;;;;;;;;;;5069079;28;20032;-79
2024/04/02 07:45:54;;;;;;;2.22;0.50;;;43.30;22.20;;;;;;5066803;28;20067;-79
2024/04/02 07:48:23;;;;;;;2.55;0.50;;;;;;;;;;5070081;28;20032;-79
2024/04/02 07:50:49;;;;;;;0.77;0.40;;;;;;;;;;5069620;28;20047;-78
2024/04/02 07:53:16;;;;;;;1.13;0.60;;;;;;;;;;5069508;28;20062;-79
2024/04/02 07:55:41;;;;;;;;;;;44.30;21.60;;;;;;5069742;28;20024;-83
2024/04/02 07:58:07;;;;;;;2.75;0.45;;;;;;;;;;5069871;28;19991;-83
2024/04/02 08:00:33;;;;;;;0.40;0.30;;;;;;;;;;5069690;28;20485;-80
2024/04/02 08:02:59;;;;;;;;;;;45.30;20.90;;;;;;5073289;28;20093;-80
2024/04/02 08:05:28;;;;;;;0.55;0.40;;;;;;;;;;5068211;28;19916;-80
2024/04/02 08:07:54;;;;;;;1.15;0.50;;;;;;;;;;5067844;28;20099;-80
2024/04/02 08:10:19;;;;;;;1.33;0.40;;;45.10;22.00;;;;;;5067962;28;20123;-80
2024/04/02 08:12:45;;;;;;;1.95;0.55;;;;;;;;;;5069886;28;20465;-80
2024/04/02 08:15:11;;;;;;;0.95;0.65;;;;;;;;;;5068843;28;20479;-80
2024/04/02 08:17:37;;;;;;;3.15;0.52;;;;;;;;;;5068601;28;20020;-80
2024/04/02 08:20:03;;;;;;;;;;;46.10;19.80;;;;;;5069574;28;20064;-80
2024/04/02 08:22:29;;;;;;;3.15;1.10;;;;;;;;;;5068567;28;20038;-80
2024/04/02 08:24:55;;;;;;;;;;;45.90;19.80;;;;;;5069414;28;20034;-81
2024/04/02 08:27:21;;;;;;;1.75;0.40;;;;;;;;;;5100367;27;19908;-80
2024/04/02 08:29:49;;;;;;;0.43;0.43;;;;;;;;;;5068372;28;20406;-80
2024/04/02 08:32:15;;;;;;;0.10;0.10;;;;;;;;;;5068510;28;20040;-80
2024/04/02 08:34:40;;;;;;;;;;;48.90;20.10;;;;;;5070053;28;20504;-80
2024/04/02 08:37:06;;;;;;;0.70;0.50;;;;;;;;;;5067989;28;19943;-80
2024/04/02 08:39:32;;;;;;;;;;;48.10;18.70;;;;;;5069024;28;20069;-80
2024/04/02 08:42:02;;;;;;;2.60;0.30;;;44.30;18.90;;;;;;5068483;28;20397;-79
2024/04/02 08:44:33;;;;;;;0.93;0.10;;;38.30;20.30;;;;;;5066846;28;20265;-80
2024/04/02 08:46:59;;;;;;;2.45;0.40;;;;;;;;;;5067839;28;20036;-80
2024/04/02 08:49:25;;;;;;;;;;;40.20;21.50;;;;;;5068904;28;20027;-80
2024/04/02 08:51:51;;;;;;;2.15;0.65;;;;;;;;;;5066829;28;19920;-80
2024/04/02 08:54:17;;;;;;;2.08;0.30;;;;;;;;;;5068364;28;20028;-80
2024/04/02 08:56:43;;;;;;;1.25;0.50;;;;;;;;;;5068607;28;20026;-80
2024/04/02 08:59:10;;;;;;;0.63;0.30;;;;;;;;;;5067914;28;20049;-80
2024/04/02 09:01:36;;;;;;;0.90;0.38;;;;;;;;;;5067941;28;20017;-81
2024/04/02 09:04:03;;;;;;;0.45;0.40;;;47.50;18.60;;;;;;5068426;28;20025;-80
2024/04/02 09:06:29;;;;;;;1.00;0.30;;;48.80;25.50;;;;;;5066460;28;20029;-80
2024/04/02 09:08:56;;;;;;;;;;;48.90;19.00;;;;;;5064467;28;20530;-80
2024/04/02 09:11:22;;;;;;;1.40;0.47;;;;;;;;;;5067306;28;19921;-80
2024/04/02 09:13:47;;;;;;;;;;;46.60;19.60;;;;;;5067897;28;20062;-81
2024/04/02 09:16:13;;;;;;;1.55;0.52;;;;;;;;;;5068104;28;19978;-80
2024/04/02 09:18:45;;;;;;;;;;;48.60;18.80;;;;;;5069180;28;20063;-81
2024/04/02 09:21:12;;;;;;;4.75;0.63;;;;;;;;;;5063175;28;19948;-80
2024/04/02 09:23:38;;;;;;;0.52;0.20;;;;;;;;;;5056965;28;20525;-80
2024/04/02 09:26:08;;;;;;;2.22;0.43;;;50.20;18.60;;;;;;5059731;28;20354;-81
2024/04/02 09:28:38;;;;;;;2.15;0.30;;;50.60;18.50;;;;;;5053415;28;20032;-80
2024/04/02 09:31:04;;;;;;;2.13;0.20;;;;;;;;;;5063293;28;20174;-80
2024/04/02 09:33:30;;;;;;;;;;;44.00;19.70;;;;;;5057197;28;20025;-81
2024/04/02 09:36:28;;;;;;;5.00;0.47;;;45.00;19.70;;;;;;5060232;28;19908;-85
2024/04/02 09:38:55;;;;;;;1.20;0.30;;;45.00;18.30;;;;;;5056734;28;20113;-85
2024/04/02 09:41:24;;;;;;;4.20;0.28;;;41.30;19.20;;;;;;5063659;28;20154;-86
2024/04/02 09:43:50;;;;;;;1.58;0.60;;;41.20;20.20;;;;;;5059022;28;20021;-85
2024/04/02 09:46:17;;;;;;;1.92;0.22;;;44.50;19.80;;;;;;5057615;28;20024;-84
2024/04/02 09:48:44;;;;;;;0.98;0.30;;;47.60;19.50;;;;;;5068045;28;20031;-84
2024/04/02 09:51:12;;;;;;;0.28;0.25;;;49.50;18.80;;;;;;5058971;28;20036;-84
2024/04/02 09:53:38;;;;;;;0.98;0.28;;;;;;;;;;5067796;28;20066;-80
2024/04/02 09:56:04;;;;;;;;;;;51.10;18.70;;;;;;5069017;28;20078;-80
2024/04/02 09:58:30;;;;;;;3.38;0.52;;;;;;;;;;5067359;28;20493;-80
2024/04/02 10:00:56;;;;;;;0.35;0.20;;;;;;;;;;5067517;28;20036;-79
2024/04/02 10:03:25;;;;;;;1.83;0.65;;;51.50;18.30;;;;;;5066897;28;20486;-79
2024/04/02 10:05:51;;;;;;;0.40;0.20;;;51.70;18.40;;;;;;5066071;28;20029;-79
2024/04/02 10:08:17;;;;;;;0.30;0.17;;;;;;;;;;5067641;28;20376;-79
2024/04/02 10:10:45;;;;;;;0.75;0.20;;;48.80;17.90;;;;;;5067200;28;20040;-80
2024/04/02 10:13:11;;;;;;;3.40;0.20;;;41.90;18.20;;;;;;5066774;28;20512;-79
2024/04/02 10:15:37;;;;;;;;;;;38.30;19.40;;;;;;5067020;28;20025;-79
2024/04/02 10:18:03;;;;;;;1.50;0.20;;;;;;;;;;5066983;28;19914;-79
2024/04/02 10:20:30;;;;;;;0.95;0.40;;;;;;;;;;5066816;28;20418;-79
2024/04/02 10:22:57;;;;;;;2.70;0.47;;;43.60;19.30;;;;;;5067056;28;20029;-80
2024/04/02 10:25:25;;;;;;;1.13;0.50;;;45.50;18.90;;;;;;5066901;28;20495;-79
2024/04/02 10:27:57;;;;;;;0.65;0.30;;;;;;;;;;5067114;28;20025;-80
2024/04/02 10:30:27;;;;;;;4.10;0.68;;;47.90;18.50;;;;;;5068675;28;20044;-80
2024/04/02 10:32:54;;;;;;;0.17;0.10;;;49.10;18.30;;;;;;5070843;28;20036;-79
2024/04/02 10:35:27;;;;;;;2.50;0.32;;;49.40;18.10;;;;;;5071794;28;20523;-79
2024/04/02 10:37:57;;;;;;;0.75;0.40;;;49.50;18.00;;;;;;5070845;28;20422;-80
2024/04/02 10:40:24;;;;;;;1.58;0.20;;;48.90;17.80;;;;;;5070596;28;20032;-80
2024/04/02 10:42:51;;;;;;;2.10;0.20;;;49.40;18.00;;;;;;5070429;28;20059;-79
2024/04/02 10:45:18;;;;;;;1.10;0.20;;;50.00;17.90;;;;;;5071022;28;20052;-80
2024/04/02 10:47:50;;;;;;;1.20;0.30;;;49.10;17.90;;;;;;5071188;28;20036;-79
2024/04/02 10:50:17;;;;;;;0.63;0.50;;;;;;;;;;5070041;28;20028;-80
2024/04/02 10:52:43;;;;;;;1.48;0.30;;;46.90;18.20;;;;;;5070454;28;20032;-79
2024/04/02 10:55:10;;;;;;;1.95;0.30;;;47.80;18.20;;;;;;5071658;28;20024;-80
2024/04/02 10:57:36;;;;;;;1.38;0.75;;;;;;;;;;5081330;28;20029;-80
2024/04/02 11:00:05;;;;;;;0.45;0.10;;;49.00;18.10;;;;;;5070964;28;20052;-80
2024/04/02 11:02:32;;;;;;;0.70;0.28;;;47.90;17.50;;;;;;5070167;28;20020;-84
2024/04/02 11:04:58;;;;;;;1.90;0.22;;;;;;;;;;5069097;28;20033;-86
2024/04/02 11:07:28;;;;;;;0.68;0.30;;;47.40;20.90;;;;;;5060908;28;20029;-84
2024/04/02 11:09:54;;;;;;;0.10;0.10;;;;;;;;;;5067297;28;20384;-83
2024/04/02 11:12:20;;;;;;;;;;;47.00;18.00;;;;;;5069868;28;20044;-86
2024/04/02 11:14:51;;;;;;;1.27;0.20;;;45.50;25.80;;;;;;5066231;28;19909;-83
2024/04/02 11:17:17;;;;;;;1.40;0.28;;;;;;;;;;5070322;28;20031;-85
2024/04/02 11:19:43;;;;;;;1.25;0.32;;;;;;;;;;5069322;28;20024;-85
2024/04/02 11:24:58;;;;;;;3.45;0.20;;;;;;;;;;5069905;28;20027;-82
2024/04/02 11:27:27;;;;;;;1.30;0.30;;;30.80;20.60;;;;;;5069697;28;20487;-86
2024/04/02 11:29:53;;;;;;;1.95;0.40;;;31.40;20.80;;;;;;5070574;28;20027;-88
2024/04/02 11:32:23;;;;;;;1.60;0.25;;;;;;;;;;5069419;28;20039;-86
2024/04/02 11:35:01;;;;;;;3.08;0.30;;;32.30;20.80;;;;;;5070528;28;20019;-88
2024/04/02 11:37:28;;;;;;;4.45;0.40;;;32.10;21.00;;;;;;5069737;28;20514;-87
2024/04/02 11:39:54;;;;;;;1.90;0.30;;;;;;;;;;5071525;28;20017;-87
2024/04/02 11:42:21;;;;;;;3.30;0.88;;;;;;;;;;5068480;28;20083;-86
2024/04/02 11:44:47;;;;;;;0.10;0.10;;;;;;;;;;5069792;28;20041;-86
2024/04/02 11:47:13;;;;;;;1.20;0.35;;;;;;;;;;5070186;28;20724;-80
2024/04/02 11:49:42;;;;;;;0.43;0.30;;;26.10;23.20;;;;;;5069230;28;20056;-81
2024/04/02 11:52:08;;;;;;;1.98;0.65;;;;;;;;;;5069678;28;20504;-81
2024/04/02 11:54:34;;;;;;;0.65;0.45;;;;;;;;;;5069623;28;20028;-81
2024/04/02 12:02:32;;;;;;;0.50;0.30;;;;;;;;;;5069632;28;20024;-83
2024/04/02 12:04:58;;;;;;;1.63;1.15;;;;;;;;;;5072159;28;20037;-79
2024/04/02 12:07:24;;;;;;;1.60;0.50;;;;;;;;;;5059582;28;20033;-84
2024/04/02 12:09:55;;;;;;;0.63;0.55;;;;;;;;;;5064799;28;20503;-81
2024/04/02 12:12:24;;;;;;;1.05;0.50;;;22.20;27.30;;;;;;5069391;28;20036;-84
2024/04/02 12:14:50;;;;;;;0.52;0.40;;;;;;;;;;5068582;28;20573;-82
2024/04/02 12:17:16;;;;;;;1.05;0.95;;;;;;;;;;5069041;28;20029;-85
2024/04/02 12:19:43;;;;;;;1.98;0.77;;;;;;;;;;5060107;28;20021;-78
2024/04/02 12:22:12;;;;;;;1.83;0.67;;;;;;;;;;5069192;28;20020;-80
2024/04/02 12:24:38;;;;;;;2.00;0.45;;;;;;;;;;5067989;28;20481;-79
2024/04/02 12:27:05;;;;;;;0.60;0.60;;;20.90;28.30;;;;;;5068597;28;20081;-79
2024/04/02 12:29:31;;;;;;;0.43;0.43;;;;;;;;;;5065063;28;20062;-79
2024/04/02 12:31:58;;;;;;;0.82;0.57;;;21.30;29.70;;;;;;5052251;28;20836;-79
2024/04/02 12:34:26;;;;;;;1.20;0.80;;;;;;;;;;5061306;28;20490;-79
2024/04/02 12:36:52;;;;;;;1.02;1.02;;;;;;;;;;5059378;28;20036;-79
2024/04/02 12:39:18;;;;;;;0.60;0.60;;;;;;;;;;5062831;28;20028;-79
2024/04/02 12:41:44;;;;;;;0.40;0.40;;;;;;;;;;5057351;28;20028;-79
2024/04/02 12:44:10;;;;;;;2.53;0.73;;;;;;;;;;5069614;28;20398;-79
2024/04/02 12:46:36;;;;;;;2.67;0.75;;;;;;;;;;5068813;28;20048;-79
2024/04/02 12:49:06;;;;;;;0.73;0.63;;;20.30;29.90;;;;;;5066534;28;20067;-79
2024/04/02 12:51:33;;;;;;;1.15;0.95;;;;;;;;;;5069008;28;20032;-80
2024/04/02 12:54:00;;;;;;;0.80;0.80;;;;;;;;;;5068325;28;20059;-79
2024/04/02 12:56:26;;;;;;;1.17;0.60;;;;;;;;;;5066985;28;20028;-80
2024/04/02 12:58:55;;;;;;;2.67;1.02;;;20.20;30.30;;;;;;5068633;28;20071;-79
2024/04/02 13:01:23;;;;;;;2.47;0.60;;;;;;;;;;5068027;28;20024;-79
2024/04/02 13:03:49;;;;;;;;;;;20.40;30.90;;;;;;5069000;28;20017;-80
2024/04/02 13:06:15;;;;;;;1.73;0.60;;;;;;;;;;5067234;28;19909;-80
2024/04/02 13:08:47;;;;;;;0.80;0.80;;;;;;;;;;5054893;28;20122;-79
2024/04/02 13:11:14;;;;;;;1.55;0.98;;;;;;;;;;5065967;28;20486;-80
2024/04/02 13:13:42;;;;;;;0.80;0.80;;;;;;;;;;5066740;28;20383;-84
2024/04/02 13:16:30;;;;;;;0.50;0.50;;;19.90;30.90;;;;;;5068932;28;20032;-86
2024/04/02 13:19:07;;;;;;;1.13;0.85;;;19.70;51.20;;;;;;5066618;28;20060;-80
2024/04/02 13:21:34;;;;;;;2.70;0.80;;;19.30;31.20;;;;;;5067306;28;20016;-80
2024/04/02 13:24:01;;;;;;;3.13;1.48;;;19.10;31.60;;;;;;5067535;28;20498;-80
2024/04/02 13:26:27;;;;;;;0.50;0.50;;;19.50;52.70;;;;;;5067462;28;20478;-82
2024/04/02 13:29:04;;;;;;;1.10;0.75;;;18.80;32.20;;;;;;5067844;28;20039;-84
2024/04/02 13:31:31;;;;;;;0.70;0.70;;;18.30;33.00;;;;;;5055612;28;20032;-82
2024/04/02 13:33:58;;;;;;;0.60;0.60;;;19.40;53.30;;;;;;5066923;28;20025;-78
2024/04/02 13:36:24;;;;;;;0.47;0.47;;;;;;;;;;5067399;28;20509;-78
2024/04/02 13:38:51;;;;;;;4.32;1.00;;;19.10;32.80;;;;;;5067344;28;20032;-79
2024/04/02 13:41:19;;;;;;;2.25;0.70;;;19.20;32.40;;;;;;5068038;28;20024;-78
2024/04/02 13:43:45;;;;;;;1.73;0.80;;;;;;;;;;5067106;28;20029;-81
2024/04/02 13:46:13;;;;;;;0.73;0.60;;;;;;;;;;5066007;28;20028;-79
2024/04/02 13:48:40;;;;;;;0.75;0.75;;;18.60;33.70;;;;;;5065587;28;20123;-81
2024/04/02 13:51:09;;;;;;;1.25;0.75;;;;;;;;;;5065970;28;20035;-80
2024/04/02 13:53:37;;;;;;;0.50;0.50;;;18.70;34.10;;;;;;5066570;28;20029;-82
2024/04/02 13:56:03;;;;;;;;;;;18.60;33.90;;;;;;5067626;28;20028;-81
2024/04/02 13:58:29;;;;;;;5.03;0.77;;;;;;;;;;5061319;28;19916;-84
2024/04/02 14:00:55;;;;;;;3.80;1.20;;;;;;;;;;5052294;28;20264;-84
2024/04/02 14:03:21;;;;;;;0.60;0.60;;;18.70;41.90;;;;;;5062273;28;20024;-84
2024/04/02 14:05:55;;;;;;;2.00;1.63;;;18.10;35.00;;;;;;5057538;28;20028;-85
2024/04/02 14:08:21;;;;;;;2.05;0.55;;;;;;;;;;5068002;28;20032;-83
2024/04/02 14:10:47;;;;;;;2.25;0.70;;;;;;;;;;5053430;28;20040;-78
2024/04/02 14:13:16;;;;;;;1.70;1.33;;;;;;;;;;5057822;28;20025;-82
2024/04/02 14:15:42;;;;;;;1.17;0.88;;;;;;;;;;5066199;28;20028;-78
2024/04/02 14:18:08;;;;;;;4.30;1.08;;;;;;;;;;5052600;28;20016;-77